Time;durP1;ratioP1;P1;durP2;ratioP2;P2;SDS_P1;SDS_P2;PMS_P1;PMS_P2;Temp;Humidity;BMP_temperature;BMP_pressure;BME280_temperature;BME280_humidity;BME280_pressure;Samples;Min_cycle;Max_cycle;Signal;HPM_P1;HPM_P2
2023/01/12 00:00:06;;;;;;;4.72;1.98;;;24.30;99.90;;;;;;5072669;28;20193;-81
2023/01/12 00:02:37;;;;;;;4.03;2.08;;;24.30;99.90;;;;;;5075411;28;20192;-81
2023/01/12 00:05:08;;;;;;;6.07;2.10;;;24.30;99.90;;;;;;5068287;28;20217;-81
2023/01/12 00:07:39;;;;;;;7.57;2.20;;;24.30;99.90;;;;;;5070624;28;20562;-80
2023/01/12 00:10:11;;;;;;;6.53;2.60;;;24.30;99.90;;;;;;5059791;28;20206;-82
2023/01/12 00:12:42;;;;;;;7.53;1.90;;;24.30;99.90;;;;;;5064048;28;20227;-80
2023/01/12 00:15:15;;;;;;;5.55;2.13;;;24.30;99.90;;;;;;5076920;28;20200;-80
2023/01/12 00:17:46;;;;;;;8.30;2.45;;;24.30;99.90;;;;;;5062396;28;20326;-81
2023/01/12 00:20:17;;;;;;;4.35;1.75;;;24.30;99.90;;;;;;5072849;28;20682;-77
2023/01/12 00:22:51;;;;;;;5.88;2.10;;;24.30;99.90;;;;;;5066268;28;20189;-79
2023/01/12 00:25:21;;;;;;;7.95;2.13;;;24.30;99.90;;;;;;5055767;28;20225;-81
2023/01/12 00:27:52;;;;;;;6.05;2.10;;;24.30;99.90;;;;;;5066041;28;20303;-81
2023/01/12 00:30:25;;;;;;;6.35;2.47;;;24.40;99.90;;;;;;5063341;28;20197;-81
2023/01/12 00:32:56;;;;;;;3.25;1.85;;;24.40;99.90;;;;;;5073473;28;20667;-80
2023/01/12 00:35:27;;;;;;;5.38;2.20;;;24.40;99.90;;;;;;5072270;28;20193;-80
2023/01/12 00:37:57;;;;;;;9.88;2.63;;;24.30;99.90;;;;;;5074441;28;20635;-83
2023/01/12 00:40:29;;;;;;;14.18;3.22;;;24.30;99.90;;;;;;5074702;28;20531;-83
2023/01/12 00:45:52;;;;;;;10.23;2.30;;;24.50;99.90;;;;;;5076335;28;20220;-81
2023/01/12 00:48:23;;;;;;;4.82;1.65;;;24.50;99.90;;;;;;5072899;28;20288;-82
2023/01/12 00:50:54;;;;;;;6.10;2.17;;;24.40;99.90;;;;;;5072696;28;20201;-82
2023/01/12 00:53:25;;;;;;;3.55;1.90;;;24.30;99.90;;;;;;5075376;28;20192;-82
2023/01/12 00:55:56;;;;;;;5.43;1.70;;;24.30;99.90;;;;;;5072611;28;20244;-82
2023/01/12 00:58:27;;;;;;;5.32;2.00;;;24.40;99.90;;;;;;5053144;28;20524;-80
2023/01/12 01:01:07;;;;;;;4.40;1.42;;;24.50;99.90;;;;;;5054469;28;20708;-82
2023/01/12 01:03:38;;;;;;;3.63;1.65;;;24.50;99.90;;;;;;5070012;28;20211;-81
2023/01/12 01:06:10;;;;;;;4.30;1.90;;;24.50;99.90;;;;;;5072965;28;20228;-82
2023/01/12 01:08:41;;;;;;;4.32;2.30;;;24.40;99.90;;;;;;5069626;28;20193;-82
2023/01/12 01:11:14;;;;;;;5.05;2.33;;;24.40;99.90;;;;;;5062330;28;20193;-77
2023/01/12 01:13:45;;;;;;;5.15;1.77;;;24.30;99.90;;;;;;5073932;28;20242;-79
2023/01/12 01:16:19;;;;;;;4.65;1.60;;;24.40;99.90;;;;;;5055709;28;20206;-85
2023/01/12 01:18:50;;;;;;;4.75;1.90;;;24.40;99.90;;;;;;5061528;28;20581;-88
2023/01/12 01:21:21;;;;;;;5.88;1.80;;;24.40;99.90;;;;;;5059376;28;20618;-84
2023/01/12 01:23:52;;;;;;;4.03;1.58;;;24.30;99.90;;;;;;5074501;28;20236;-84
2023/01/12 01:26:24;;;;;;;6.13;1.70;;;24.40;99.90;;;;;;5073275;28;20208;-85
2023/01/12 01:28:55;;;;;;;6.25;1.90;;;24.30;99.90;;;;;;5072422;28;20201;-85
2023/01/12 01:31:28;;;;;;;9.10;1.88;;;24.20;99.90;;;;;;5067852;28;20201;-83
2023/01/12 01:33:59;;;;;;;5.40;1.70;;;24.30;99.90;;;;;;5069377;28;20569;-82
2023/01/12 01:36:30;;;;;;;5.70;1.50;;;24.30;99.90;;;;;;5076704;28;20283;-83
2023/01/12 01:39:01;;;;;;;4.55;1.60;;;24.50;99.90;;;;;;5071648;28;20280;-87
2023/01/12 01:41:33;;;;;;;4.63;1.42;;;24.60;99.90;;;;;;5073586;28;20185;-87
2023/01/12 01:44:05;;;;;;;5.35;1.80;;;24.80;99.90;;;;;;5072245;28;20197;-88
2023/01/12 01:46:49;;;;;;;5.03;1.85;;;24.90;99.90;;;;;;5081735;28;20303;-83
2023/01/12 01:49:31;;;;;;;6.22;1.83;;;25.20;99.90;;;;;;5073473;28;20676;-84
2023/01/12 01:52:05;;;;;;;6.80;1.67;;;25.50;99.90;;;;;;5054404;28;20239;-88
2023/01/12 01:54:40;;;;;;;2.75;1.40;;;25.70;99.90;;;;;;5062246;28;20193;-88
2023/01/12 01:57:13;;;;;;;4.63;1.77;;;26.00;99.90;;;;;;5073628;28;20298;-85
2023/01/12 01:59:48;;;;;;;3.75;1.50;;;26.20;99.90;;;;;;5065811;28;20198;-81
2023/01/12 02:02:21;;;;;;;5.13;1.70;;;26.50;99.90;;;;;;5053458;28;20287;-86
2023/01/12 02:04:52;;;;;;;4.05;1.52;;;26.50;99.90;;;;;;5076427;28;20279;-81
2023/01/12 02:07:24;;;;;;;5.45;1.85;;;26.50;99.90;;;;;;5084197;28;20220;-83
2023/01/12 02:09:54;;;;;;;6.47;1.77;;;26.50;99.90;;;;;;5070823;28;20201;-83
2023/01/12 02:18:12;;;;;;;3.97;1.52;;;26.40;99.90;;;;;;5071736;28;20203;-85
2023/01/12 02:21:05;;;;;;;3.97;2.00;;;26.50;99.90;;;;;;5072926;28;20195;-85
2023/01/12 02:24:08;;;;;;;3.75;2.22;;;26.70;99.90;;;;;;5072985;28;20319;-86
2023/01/12 02:27:11;;;;;;;5.70;2.10;;;26.80;99.90;;;;;;5072885;28;20232;-91
2023/01/12 02:30:18;;;;;;;5.25;2.67;;;26.90;99.90;;;;;;5072936;28;20196;-85
2023/01/12 02:33:01;;;;;;;7.53;3.20;;;26.90;99.90;;;;;;5058317;28;20211;-86
2023/01/12 02:35:41;;;;;;;4.72;3.03;;;26.80;99.90;;;;;;5072776;28;20637;-85
2023/01/12 02:38:18;;;;;;;5.47;2.70;;;26.90;99.90;;;;;;5072749;28;20543;-81
2023/01/12 02:40:58;;;;;;;6.45;3.00;;;26.90;99.90;;;;;;5072794;28;20271;-83
2023/01/12 02:43:30;;;;;;;4.70;3.05;;;26.80;99.90;;;;;;5072888;28;20227;-87
2023/01/12 02:46:10;;;;;;;5.55;3.00;;;26.80;99.90;;;;;;5075097;28;20224;-88
2023/01/12 02:48:50;;;;;;;5.18;2.80;;;26.90;99.90;;;;;;5076694;28;20200;-84
2023/01/12 02:51:30;;;;;;;5.78;2.90;;;27.10;99.90;;;;;;5077070;28;20600;-89
2023/01/12 02:54:04;;;;;;;5.40;2.72;;;27.20;99.90;;;;;;5076635;28;20196;-88
2023/01/12 02:56:38;;;;;;;5.65;2.70;;;27.10;99.90;;;;;;5076845;28;20235;-87
2023/01/12 02:59:13;;;;;;;5.57;2.97;;;27.20;99.90;;;;;;5076644;28;20228;-88
2023/01/12 03:01:46;;;;;;;4.95;2.80;;;27.30;99.90;;;;;;5076631;28;20196;-82
2023/01/12 03:04:20;;;;;;;5.22;2.65;;;27.30;99.90;;;;;;5076212;28;20223;-87
2023/01/12 03:07:24;;;;;;;5.68;3.10;;;27.20;99.90;;;;;;5076428;28;20709;-83
2023/01/12 03:10:00;;;;;;;5.63;2.78;;;26.90;99.90;;;;;;5076304;28;20200;-81
2023/01/12 03:12:35;;;;;;;4.22;3.13;;;27.10;99.90;;;;;;5076458;28;20816;-87
2023/01/12 03:15:12;;;;;;;6.97;3.53;;;26.90;99.90;;;;;;5076349;28;20238;-85
2023/01/12 03:17:47;;;;;;;5.72;2.90;;;26.90;99.90;;;;;;5076154;28;20195;-83
2023/01/12 03:20:24;;;;;;;8.20;3.10;;;26.90;99.90;;;;;;5076040;28;20267;-85
2023/01/12 03:22:59;;;;;;;5.18;2.95;;;27.00;99.90;;;;;;5076444;28;20196;-84
2023/01/12 03:25:37;;;;;;;3.70;2.50;;;27.10;99.90;;;;;;5076370;28;20200;-82
2023/01/12 03:28:09;;;;;;;5.85;2.47;;;27.00;99.90;;;;;;5075879;28;20711;-81
2023/01/12 03:30:42;;;;;;;5.25;3.10;;;27.00;99.90;;;;;;5076352;28;20280;-84
2023/01/12 03:33:14;;;;;;;5.13;3.42;;;27.00;99.90;;;;;;5075804;28;20200;-86
2023/01/12 03:35:54;;;;;;;6.53;2.95;;;26.90;99.90;;;;;;5075895;28;20193;-86
2023/01/12 03:38:30;;;;;;;5.28;2.97;;;27.00;99.90;;;;;;5076227;28;20197;-81
2023/01/12 03:41:07;;;;;;;5.40;3.28;;;27.20;99.90;;;;;;5075969;28;20189;-85
2023/01/12 03:43:44;;;;;;;4.88;2.85;;;27.10;99.90;;;;;;5075772;28;20274;-83
2023/01/12 03:46:21;;;;;;;6.25;2.80;;;27.10;99.90;;;;;;5075487;28;20659;-82
2023/01/12 03:48:59;;;;;;;5.10;2.90;;;27.10;99.90;;;;;;5075591;28;20197;-84
2023/01/12 03:51:34;;;;;;;5.82;2.50;;;27.00;99.90;;;;;;5075726;28;20640;-85
2023/01/12 03:54:08;;;;;;;3.40;1.85;;;26.90;99.90;;;;;;5075473;28;20192;-76
2023/01/12 03:56:40;;;;;;;3.25;2.15;;;26.80;99.90;;;;;;5075137;28;20193;-81
2023/01/12 03:59:11;;;;;;;6.70;2.20;;;26.50;99.90;;;;;;5075489;28;20199;-80
2023/01/12 04:01:42;;;;;;;5.05;1.80;;;26.30;99.90;;;;;;5075317;28;20276;-83
2023/01/12 04:04:13;;;;;;;2.88;1.70;;;26.50;99.90;;;;;;5075412;28;20652;-79
2023/01/12 04:06:46;;;;;;;5.30;1.60;;;26.40;99.90;;;;;;5075383;28;20212;-81
2023/01/12 04:09:17;;;;;;;4.57;1.75;;;26.40;99.90;;;;;;5075432;28;20193;-77
2023/01/12 04:14:34;;;;;;;3.78;1.80;;;26.40;99.90;;;;;;5075410;28;20773;-80
2023/01/12 04:17:05;;;;;;;4.53;1.65;;;26.40;99.90;;;;;;5075085;28;20283;-80
2023/01/12 04:19:36;;;;;;;4.25;1.95;;;26.30;99.90;;;;;;5075243;28;20280;-84
2023/01/12 04:24:56;;;;;;;4.03;1.70;;;26.40;99.90;;;;;;5075096;28;20375;-80
2023/01/12 04:27:27;;;;;;;7.43;1.90;;;26.40;99.90;;;;;;5075040;28;20223;-81
2023/01/12 04:29:58;;;;;;;5.45;2.30;;;26.40;99.90;;;;;;5074667;28;20189;-79
2023/01/12 04:32:29;;;;;;;3.65;2.30;;;26.30;99.90;;;;;;5075036;28;20193;-81
2023/01/12 04:35:00;;;;;;;6.68;2.20;;;26.20;99.90;;;;;;5075031;28;20284;-82
2023/01/12 04:37:34;;;;;;;3.50;1.70;;;26.10;99.90;;;;;;5074858;28;20195;-80
2023/01/12 04:40:05;;;;;;;3.63;1.80;;;26.10;99.90;;;;;;5074646;28;20192;-81
2023/01/12 04:45:23;;;;;;;4.28;1.80;;;26.20;99.90;;;;;;5074647;28;20677;-82
2023/01/12 04:47:54;;;;;;;4.65;1.98;;;26.20;99.90;;;;;;5074942;28;20227;-74
2023/01/12 04:50:25;;;;;;;3.00;1.70;;;26.20;99.90;;;;;;5074440;28;20191;-81
2023/01/12 04:52:58;;;;;;;6.72;2.17;;;26.20;99.90;;;;;;5074495;28;20193;-79
2023/01/12 04:55:29;;;;;;;4.70;1.80;;;26.20;99.90;;;;;;5074445;28;20193;-82
2023/01/12 04:58:00;;;;;;;3.13;1.70;;;26.10;99.90;;;;;;5074294;28;20197;-82
2023/01/12 05:00:31;;;;;;;5.50;1.70;;;26.10;99.90;;;;;;5074165;28;20185;-81
2023/01/12 05:03:03;;;;;;;3.20;1.60;;;26.00;99.90;;;;;;5074494;28;20626;-79
2023/01/12 05:05:35;;;;;;;4.25;1.77;;;26.00;99.90;;;;;;5074483;28;20193;-78
2023/01/12 05:10:55;;;;;;;5.50;1.70;;;26.10;99.90;;;;;;5074307;28;20188;-79
2023/01/12 05:13:27;;;;;;;2.90;1.50;;;26.10;99.90;;;;;;5073966;28;20189;-80
2023/01/12 05:15:58;;;;;;;5.18;1.80;;;26.00;99.90;;;;;;5073918;28;20268;-81
2023/01/12 05:18:30;;;;;;;4.38;1.92;;;26.00;99.90;;;;;;5074030;28;20679;-79
2023/01/12 05:21:01;;;;;;;4.22;1.67;;;26.00;99.90;;;;;;5074057;28;20189;-82
2023/01/12 05:23:33;;;;;;;4.65;1.80;;;25.90;99.90;;;;;;5073805;28;20237;-81
2023/01/12 05:26:05;;;;;;;6.20;1.50;;;25.90;99.90;;;;;;5073641;28;20202;-81
2023/01/12 05:28:36;;;;;;;3.33;1.77;;;25.90;99.90;;;;;;5073614;28;20232;-81
2023/01/12 05:31:09;;;;;;;4.35;1.80;;;25.80;99.90;;;;;;5073760;28;20197;-80
2023/01/12 05:33:42;;;;;;;4.30;1.80;;;25.70;99.90;;;;;;5073668;28;20190;-81
2023/01/12 05:36:14;;;;;;;5.57;1.70;;;25.60;99.90;;;;;;5073373;28;20215;-78
2023/01/12 05:38:47;;;;;;;3.47;1.50;;;25.60;99.90;;;;;;5073598;28;20203;-80
2023/01/12 05:41:18;;;;;;;3.95;1.95;;;25.60;99.90;;;;;;5073657;28;20191;-81
2023/01/12 05:43:50;;;;;;;3.67;1.60;;;25.50;99.90;;;;;;5073374;28;20303;-81
2023/01/12 05:46:23;;;;;;;2.72;1.80;;;25.60;99.90;;;;;;5073545;28;20192;-79
2023/01/12 05:48:55;;;;;;;2.60;1.38;;;25.60;99.90;;;;;;5073426;28;20193;-81
2023/01/12 05:51:29;;;;;;;2.35;1.23;;;25.50;99.90;;;;;;5073444;28;20195;-79
2023/01/12 05:54:02;;;;;;;3.67;1.30;;;25.50;99.90;;;;;;5073304;28;20185;-78
2023/01/12 05:56:33;;;;;;;2.35;1.38;;;25.50;99.90;;;;;;5073582;28;20558;-76
2023/01/12 05:59:05;;;;;;;3.67;1.85;;;25.50;99.90;;;;;;5073137;28;20192;-79
2023/01/12 06:01:37;;;;;;;3.08;1.50;;;25.50;99.90;;;;;;5073260;28;20199;-82
2023/01/12 06:04:08;;;;;;;6.32;1.58;;;25.50;99.90;;;;;;5073168;28;20601;-86
2023/01/12 06:06:39;;;;;;;3.03;1.25;;;25.50;99.90;;;;;;5073197;28;20216;-79
2023/01/12 06:09:12;;;;;;;4.05;1.38;;;25.50;99.90;;;;;;5073473;28;20305;-83
2023/01/12 06:14:29;;;;;;;1.85;1.27;;;25.40;99.90;;;;;;5073357;28;20697;-80
2023/01/12 06:17:00;;;;;;;2.30;1.10;;;25.30;99.90;;;;;;5073246;28;20192;-79
2023/01/12 06:19:31;;;;;;;2.40;1.30;;;25.10;99.90;;;;;;5072985;28;20211;-81
2023/01/12 06:22:02;;;;;;;3.80;1.10;;;25.00;99.90;;;;;;5072957;28;20215;-77
2023/01/12 06:24:35;;;;;;;2.67;1.30;;;24.90;99.90;;;;;;5072785;28;20271;-78
2023/01/12 06:27:07;;;;;;;3.67;1.20;;;25.00;99.90;;;;;;5072830;28;20220;-77
2023/01/12 06:29:38;;;;;;;2.42;1.10;;;25.00;99.90;;;;;;5073040;28;20196;-78
2023/01/12 06:32:09;;;;;;;3.55;1.10;;;24.90;99.90;;;;;;5072893;28;20193;-81
2023/01/12 06:34:40;;;;;;;2.83;1.10;;;25.00;99.90;;;;;;5073102;28;20192;-83
2023/01/12 06:37:11;;;;;;;3.85;0.95;;;25.00;99.90;;;;;;5072962;28;20189;-78
2023/01/12 06:39:44;;;;;;;2.45;1.05;;;25.00;99.90;;;;;;5072919;28;20196;-77
2023/01/12 06:42:30;;;;;;;2.40;1.10;;;24.90;99.90;;;;;;5072498;28;20266;-80
2023/01/12 06:45:02;;;;;;;4.13;1.10;;;24.80;99.90;;;;;;5073064;28;20557;-81
2023/01/12 06:47:33;;;;;;;3.88;1.15;;;24.70;99.90;;;;;;5071931;28;20225;-80
2023/01/12 06:50:04;;;;;;;3.83;1.05;;;24.70;99.90;;;;;;5072849;28;20189;-78
2023/01/12 06:52:35;;;;;;;2.75;1.10;;;24.60;99.90;;;;;;5071749;28;20220;-78
2023/01/12 06:55:08;;;;;;;3.05;1.00;;;24.60;99.90;;;;;;5072522;28;20196;-80
2023/01/12 06:57:39;;;;;;;2.22;1.00;;;24.50;99.90;;;;;;5072982;28;20200;-80
2023/01/12 07:00:13;;;;;;;3.08;0.90;;;24.50;99.90;;;;;;5072570;28;20200;-82
2023/01/12 07:02:44;;;;;;;2.20;1.00;;;24.50;99.90;;;;;;5071375;28;20193;-82
2023/01/12 07:05:15;;;;;;;2.70;0.65;;;24.50;99.90;;;;;;5072821;28;20225;-83
2023/01/12 07:07:46;;;;;;;2.88;0.98;;;24.50;99.90;;;;;;5072669;28;20311;-82
2023/01/12 07:10:19;;;;;;;1.65;0.68;;;24.40;99.90;;;;;;5072374;28;20195;-84
2023/01/12 07:12:50;;;;;;;4.63;0.90;;;24.40;99.90;;;;;;5072727;28;20189;-80
2023/01/12 07:15:21;;;;;;;3.40;0.90;;;24.50;99.90;;;;;;5072567;28;20272;-80
2023/01/12 07:17:58;;;;;;;3.70;0.98;;;24.30;99.90;;;;;;5072684;28;20193;-80
2023/01/12 07:20:29;;;;;;;2.75;0.88;;;24.20;99.90;;;;;;5072442;28;20193;-84
2023/01/12 07:23:00;;;;;;;4.82;0.88;;;24.10;99.90;;;;;;5072391;28;20244;-80
2023/01/12 07:25:33;;;;;;;4.90;1.00;;;24.10;99.90;;;;;;5072598;28;20291;-82
2023/01/12 07:28:04;;;;;;;2.33;0.80;;;24.00;99.90;;;;;;5072394;28;20225;-81
2023/01/12 07:30:35;;;;;;;1.90;0.80;;;23.90;99.90;;;;;;5072524;28;20280;-85
2023/01/12 07:33:10;;;;;;;3.40;0.70;;;23.90;99.90;;;;;;5076088;28;20196;-81
2023/01/12 07:35:41;;;;;;;1.98;0.70;;;23.70;99.90;;;;;;5076282;28;20293;-79
2023/01/12 07:38:12;;;;;;;2.95;1.10;;;23.70;99.90;;;;;;5075954;28;20250;-83
2023/01/12 07:40:45;;;;;;;3.65;0.85;;;23.70;99.90;;;;;;5075794;28;20193;-79
2023/01/12 07:43:17;;;;;;;3.05;1.30;;;23.70;99.90;;;;;;5075889;28;20224;-83
2023/01/12 07:45:48;;;;;;;4.75;0.82;;;23.70;99.90;;;;;;5075869;28;20228;-79
2023/01/12 07:48:20;;;;;;;4.63;1.15;;;23.70;99.90;;;;;;5075587;28;20216;-84
2023/01/12 07:50:51;;;;;;;2.42;0.90;;;23.60;99.90;;;;;;5075801;28;20193;-84
2023/01/12 07:53:22;;;;;;;3.00;1.00;;;23.60;99.90;;;;;;5075449;28;20268;-84
2023/01/12 07:55:55;;;;;;;3.70;1.02;;;23.60;99.90;;;;;;5075666;28;20531;-83
2023/01/12 07:58:26;;;;;;;3.25;1.15;;;23.60;99.90;;;;;;5075479;28;20279;-78
2023/01/12 08:01:01;;;;;;;5.80;1.20;;;23.60;99.90;;;;;;5075621;28;20195;-82
2023/01/12 08:03:32;;;;;;;5.03;1.30;;;23.40;99.90;;;;;;5075531;28;20188;-81
2023/01/12 08:06:05;;;;;;;6.50;0.90;;;23.30;99.90;;;;;;5075805;28;20284;-83
2023/01/12 08:08:37;;;;;;;3.00;1.02;;;23.20;99.90;;;;;;5075193;28;20311;-85
2023/01/12 08:11:11;;;;;;;4.05;1.30;;;23.10;99.90;;;;;;5075508;28;20255;-83
2023/01/12 08:13:42;;;;;;;4.40;1.00;;;23.00;99.90;;;;;;5075363;28;20636;-85
2023/01/12 08:16:18;;;;;;;2.90;0.90;;;22.90;99.90;;;;;;5075336;28;20189;-85
2023/01/12 08:18:54;;;;;;;7.90;1.00;;;22.90;99.90;;;;;;5075374;28;20192;-88
2023/01/12 08:21:29;;;;;;;3.70;1.10;;;22.90;99.90;;;;;;5075111;28;20555;-87
2023/01/12 08:24:02;;;;;;;4.90;1.25;;;22.90;99.90;;;;;;5074779;28;20267;-81
2023/01/12 08:26:39;;;;;;;3.45;1.20;;;22.80;99.90;;;;;;5074478;28;20197;-85
2023/01/12 08:29:12;;;;;;;3.40;1.00;;;22.80;99.90;;;;;;5054971;28;20223;-84
2023/01/12 08:31:44;;;;;;;2.55;1.08;;;22.80;99.90;;;;;;5055109;28;20186;-85
2023/01/12 08:34:15;;;;;;;3.95;0.95;;;22.80;99.90;;;;;;5055051;28;20190;-86
2023/01/12 08:36:46;;;;;;;2.35;1.05;;;22.80;99.90;;;;;;5054676;28;20662;-85
2023/01/12 08:39:18;;;;;;;5.53;1.20;;;22.70;99.90;;;;;;5054871;28;20193;-85
2023/01/12 08:41:50;;;;;;;4.20;1.30;;;22.70;99.90;;;;;;5054796;28;20233;-86
2023/01/12 08:44:21;;;;;;;2.95;1.10;;;22.70;99.90;;;;;;5054894;28;20277;-85
2023/01/12 08:46:54;;;;;;;3.25;1.10;;;22.70;99.90;;;;;;5054680;28;20196;-87
2023/01/12 08:49:27;;;;;;;5.78;1.13;;;22.70;99.90;;;;;;5054685;28;20193;-85
2023/01/12 08:51:58;;;;;;;5.45;1.02;;;22.70;99.90;;;;;;5054382;28;20226;-85
2023/01/12 08:54:29;;;;;;;4.63;1.05;;;22.70;99.90;;;;;;5054632;28;20189;-82
2023/01/12 08:57:02;;;;;;;3.47;1.00;;;22.70;99.90;;;;;;5054497;28;20194;-87
2023/01/12 08:59:34;;;;;;;3.67;1.10;;;22.60;99.90;;;;;;5054469;28;20194;-83
2023/01/12 09:02:05;;;;;;;3.28;1.10;;;22.60;99.90;;;;;;5054460;28;20194;-87
2023/01/12 09:04:38;;;;;;;6.75;1.38;;;22.60;99.90;;;;;;5054627;28;20194;-86
2023/01/12 09:07:09;;;;;;;5.20;1.50;;;22.60;99.90;;;;;;5054151;28;20190;-86
2023/01/12 09:09:40;;;;;;;3.50;1.00;;;22.60;99.90;;;;;;5054687;28;20196;-87
2023/01/12 09:12:13;;;;;;;3.25;1.10;;;22.60;99.90;;;;;;5054332;28;20554;-91
2023/01/12 09:14:44;;;;;;;5.70;1.42;;;22.60;99.90;;;;;;5054075;28;20233;-85
2023/01/12 09:17:15;;;;;;;4.38;1.05;;;22.60;99.90;;;;;;5054193;28;20215;-86
2023/01/12 09:19:48;;;;;;;5.35;1.10;;;22.50;99.90;;;;;;5053974;28;20192;-86
2023/01/12 09:22:19;;;;;;;3.40;1.20;;;22.50;99.90;;;;;;5053926;28;20185;-83
2023/01/12 09:24:50;;;;;;;4.35;0.80;;;22.50;99.90;;;;;;5054106;28;20239;-83
2023/01/12 09:27:23;;;;;;;3.58;0.93;;;22.50;99.90;;;;;;5053933;28;20583;-84
2023/01/12 09:29:53;;;;;;;2.95;1.08;;;22.40;99.90;;;;;;5053914;28;20560;-88
2023/01/12 09:32:24;;;;;;;1.90;1.00;;;22.40;99.90;;;;;;5053793;28;20198;-84
2023/01/12 09:34:55;;;;;;;4.05;1.02;;;22.40;99.90;;;;;;5053549;28;20198;-85
2023/01/12 09:37:26;;;;;;;7.90;1.35;;;22.40;99.90;;;;;;5053863;28;20186;-85
2023/01/12 09:39:58;;;;;;;5.53;1.20;;;22.40;99.90;;;;;;5053703;28;20196;-83
2023/01/12 09:48:18;;;;;;;2.55;1.00;;;22.30;99.90;;;;;;5053595;28;20391;-86
2023/01/12 09:50:53;;;;;;;2.95;1.02;;;22.30;99.90;;;;;;5053568;28;20212;-85
2023/01/12 09:53:27;;;;;;;3.83;1.05;;;22.30;99.90;;;;;;5053261;28;20189;-87
2023/01/12 09:56:04;;;;;;;4.18;1.20;;;22.30;99.90;;;;;;5053360;28;20189;-84
2023/01/12 09:59:06;;;;;;;3.63;1.10;;;22.30;99.90;;;;;;5053323;28;20200;-86
2023/01/12 10:01:38;;;;;;;4.82;1.05;;;22.30;99.90;;;;;;5053446;28;20185;-87
2023/01/12 10:04:10;;;;;;;2.05;1.20;;;22.20;99.90;;;;;;5053251;28;20629;-87
2023/01/12 10:06:41;;;;;;;7.72;1.30;;;22.20;99.90;;;;;;5053313;28;20212;-85
2023/01/12 10:09:18;;;;;;;2.92;1.10;;;22.20;99.90;;;;;;5053414;28;20576;-91
2023/01/12 10:11:56;;;;;;;4.68;1.20;;;22.20;99.90;;;;;;5053471;28;20275;-88
2023/01/12 10:14:51;;;;;;;7.45;1.58;;;22.20;99.90;;;;;;5053484;28;20205;-85
2023/01/12 10:17:30;;;;;;;5.00;1.27;;;22.20;99.90;;;;;;5053290;28;20201;-88
2023/01/12 10:20:14;;;;;;;3.30;1.10;;;22.20;99.90;;;;;;5053213;28;20189;-90
2023/01/12 10:22:49;;;;;;;4.32;1.10;;;22.10;99.90;;;;;;5053027;28;20225;-88
2023/01/12 10:25:32;;;;;;;3.17;1.20;;;22.10;99.90;;;;;;5053219;28;20193;-88
2023/01/12 10:28:16;;;;;;;4.90;1.10;;;22.10;99.90;;;;;;5053076;28;20676;-89
2023/01/12 10:30:51;;;;;;;4.32;1.13;;;22.10;99.90;;;;;;5053111;28;20190;-87
2023/01/12 10:33:26;;;;;;;2.72;1.02;;;22.10;99.90;;;;;;5061321;28;20192;-91
2023/01/12 10:35:59;;;;;;;1.90;0.88;;;22.10;99.90;;;;;;5072516;28;20275;-91
2023/01/12 10:38:39;;;;;;;4.32;1.10;;;22.10;99.90;;;;;;5073073;28;20192;-88
2023/01/12 10:41:18;;;;;;;6.75;1.27;;;22.00;99.90;;;;;;5073230;28;20204;-91
2023/01/12 10:44:05;;;;;;;3.03;1.05;;;22.00;99.90;;;;;;5073248;28;20193;-88
2023/01/12 10:46:41;;;;;;;4.82;1.30;;;22.00;99.90;;;;;;5073027;28;20195;-88
2023/01/12 10:49:22;;;;;;;3.00;1.33;;;22.00;99.90;;;;;;5072735;28;20217;-91
2023/01/12 10:51:56;;;;;;;3.95;1.20;;;22.00;99.90;;;;;;5073251;28;20336;-91
2023/01/12 10:54:30;;;;;;;6.07;1.20;;;22.00;99.90;;;;;;5073523;28;20284;-88
2023/01/12 10:57:04;;;;;;;4.82;1.40;;;22.00;99.90;;;;;;5073549;28;20185;-91
2023/01/12 10:59:37;;;;;;;4.18;0.95;;;22.00;99.90;;;;;;5073613;28;20652;-89
2023/01/12 11:02:17;;;;;;;3.78;1.02;;;22.00;99.90;;;;;;5073153;28;20197;-89
2023/01/12 11:04:49;;;;;;;4.35;1.10;;;22.00;99.90;;;;;;5072880;28;20188;-88
2023/01/12 11:07:21;;;;;;;2.55;1.00;;;21.90;99.90;;;;;;5075847;28;20221;-91
2023/01/12 11:09:52;;;;;;;4.10;1.20;;;22.00;99.90;;;;;;5076541;28;20228;-91
2023/01/12 11:12:26;;;;;;;2.75;0.90;;;22.00;99.90;;;;;;5077091;28;20188;-87
2023/01/12 11:15:13;;;;;;;4.72;1.17;;;21.90;99.90;;;;;;5076846;28;20224;-90
2023/01/12 11:18:01;;;;;;;4.00;1.20;;;21.90;99.90;;;;;;5076262;28;20189;-90
2023/01/12 11:20:38;;;;;;;2.60;1.10;;;21.90;99.90;;;;;;5076596;28;20192;-88
2023/01/12 11:23:20;;;;;;;4.70;1.27;;;21.90;99.90;;;;;;5076424;28;20233;-91
2023/01/12 11:25:53;;;;;;;4.05;1.40;;;21.90;99.90;;;;;;5076610;28;20724;-90
2023/01/12 11:28:29;;;;;;;4.20;1.10;;;21.90;99.90;;;;;;5076920;28;20209;-90
2023/01/12 11:31:03;;;;;;;2.10;1.00;;;21.90;99.90;;;;;;5076559;28;20242;-90
2023/01/12 11:33:40;;;;;;;3.08;1.23;;;21.90;99.90;;;;;;5076605;28;20193;-90
2023/01/12 11:36:13;;;;;;;2.83;1.13;;;21.90;99.90;;;;;;5076330;28;20280;-90
2023/01/12 11:38:48;;;;;;;3.33;1.20;;;21.80;99.90;;;;;;5076210;28;20201;-90
2023/01/12 11:41:24;;;;;;;4.43;1.40;;;21.80;99.90;;;;;;5076028;28;20275;-89
2023/01/12 11:44:03;;;;;;;4.15;1.20;;;21.80;99.90;;;;;;5076370;28;20243;-90
2023/01/12 11:46:39;;;;;;;3.17;1.05;;;21.80;99.90;;;;;;5075883;28;20284;-88
2023/01/12 11:49:18;;;;;;;5.07;1.17;;;21.80;99.90;;;;;;5075999;28;20246;-87
2023/01/12 11:51:52;;;;;;;3.10;1.23;;;21.80;99.90;;;;;;5076117;28;20275;-90
2023/01/12 11:54:23;;;;;;;3.03;1.00;;;21.70;99.90;;;;;;5076129;28;20645;-88
2023/01/12 11:57:20;;;;;;;4.28;1.20;;;21.80;99.90;;;;;;5075935;28;20197;-89
2023/01/12 12:00:03;;;;;;;4.75;1.63;;;21.70;99.90;;;;;;5075677;28;20357;-88
2023/01/12 12:02:38;;;;;;;3.03;1.10;;;21.70;99.90;;;;;;5075740;28;20199;-89
2023/01/12 12:05:23;;;;;;;3.35;1.45;;;21.70;99.90;;;;;;5075951;28;20196;-88
2023/01/12 12:08:15;;;;;;;6.28;1.50;;;21.70;99.90;;;;;;5075631;28;20572;-89
2023/01/12 12:10:52;;;;;;;5.30;1.10;;;21.70;99.90;;;;;;5076011;28;20204;-87
2023/01/12 12:13:40;;;;;;;5.05;1.20;;;21.70;99.90;;;;;;5075431;28;20215;-88
2023/01/12 12:16:25;;;;;;;6.13;1.27;;;21.70;99.90;;;;;;5075434;28;20189;-89
2023/01/12 12:19:18;;;;;;;5.78;1.00;;;21.70;99.90;;;;;;5075456;28;20213;-89
2023/01/12 12:22:07;;;;;;;5.22;1.13;;;21.70;99.90;;;;;;5074153;28;20682;-89
2023/01/12 12:24:53;;;;;;;4.20;1.20;;;21.70;99.90;;;;;;5075366;28;20260;-91
2023/01/12 12:27:34;;;;;;;4.93;1.20;;;21.70;99.90;;;;;;5075598;28;20188;-90
2023/01/12 12:30:43;;;;;;;3.17;1.00;;;21.70;99.90;;;;;;5075579;28;20304;-86
2023/01/12 12:33:23;;;;;;;4.97;1.20;;;21.60;99.90;;;;;;5075208;28;20280;-86
2023/01/12 12:36:07;;;;;;;5.68;1.50;;;21.70;99.90;;;;;;5075673;28;20203;-90
2023/01/12 12:39:04;;;;;;;4.15;1.20;;;21.70;99.90;;;;;;5075300;28;20193;-90
2023/01/12 12:48:00;;;;;;;2.63;1.10;;;21.70;99.90;;;;;;5075110;28;20191;-89
2023/01/12 12:50:36;;;;;;;4.18;1.10;;;21.70;99.90;;;;;;5074949;28;20228;-89
2023/01/12 12:53:15;;;;;;;4.95;1.25;;;21.70;99.90;;;;;;5074893;28;20635;-91
2023/01/12 12:55:50;;;;;;;5.85;1.10;;;21.60;99.90;;;;;;5074718;28;20644;-90
2023/01/12 12:58:44;;;;;;;5.18;1.20;;;21.70;99.90;;;;;;5074577;28;20193;-90
2023/01/12 13:02:00;;;;;;;5.03;1.00;;;21.60;99.90;;;;;;5074883;28;20276;-91
2023/01/12 13:05:02;;;;;;;3.20;1.05;;;21.60;99.90;;;;;;5074885;28;20192;-90
2023/01/12 13:07:38;;;;;;;3.90;1.15;;;21.60;99.90;;;;;;5074759;28;20195;-88
2023/01/12 13:10:32;;;;;;;3.88;1.13;;;21.60;99.90;;;;;;5074727;28;20785;-90
2023/01/12 13:13:24;;;;;;;4.47;1.15;;;21.60;99.90;;;;;;5074414;28;20193;-90
2023/01/12 13:16:43;;;;;;;5.78;1.23;;;21.60;99.90;;;;;;5074580;28;20243;-90
2023/01/12 13:19:36;;;;;;;2.88;1.00;;;21.60;99.90;;;;;;5074888;28;20204;-91
2023/01/12 13:22:31;;;;;;;6.25;1.35;;;21.60;99.90;;;;;;5074460;28;20189;-92
2023/01/12 13:25:06;;;;;;;4.35;1.20;;;21.60;99.90;;;;;;5074390;28;20239;-92
2023/01/12 13:28:10;;;;;;;2.72;1.13;;;21.60;99.90;;;;;;5074325;28;20275;-90
2023/01/12 13:30:52;;;;;;;5.43;1.20;;;21.60;99.90;;;;;;5074397;28;20223;-90
2023/01/12 13:33:29;;;;;;;3.10;1.20;;;21.60;99.90;;;;;;5074324;28;20189;-90
2023/01/12 13:36:10;;;;;;;6.57;1.20;;;21.60;99.90;;;;;;5073441;28;20196;-90
2023/01/12 13:39:08;;;;;;;5.03;1.10;;;21.50;99.90;;;;;;5074089;28;20284;-91
2023/01/12 13:44:35;;;;;;;3.55;1.08;;;21.60;99.90;;;;;;5071357;28;20203;-92
2023/01/12 13:47:11;;;;;;;2.85;1.10;;;21.60;99.90;;;;;;5074398;28;20199;-90
2023/01/12 13:49:50;;;;;;;3.50;1.13;;;21.60;99.90;;;;;;5073976;28;20299;-92
2023/01/12 13:52:29;;;;;;;3.13;1.10;;;21.60;99.90;;;;;;5074154;28;20193;-92
2023/01/12 13:55:01;;;;;;;3.15;1.10;;;21.60;99.90;;;;;;5074136;28;20193;-91
2023/01/12 13:57:33;;;;;;;3.97;1.13;;;21.50;99.90;;;;;;5073961;28;20654;-92
2023/01/12 14:00:08;;;;;;;5.25;1.35;;;21.50;99.90;;;;;;5073998;28;20267;-88
2023/01/12 14:02:42;;;;;;;4.07;1.10;;;21.50;99.90;;;;;;5073667;28;20207;-89
2023/01/12 14:05:38;;;;;;;2.65;1.33;;;21.50;99.90;;;;;;5073786;28;20632;-91
2023/01/12 14:08:31;;;;;;;4.03;1.20;;;21.50;99.90;;;;;;5073787;28;20185;-89